< Cyclone 197809 1979 Season Cyclone 197902 >
Cyclone 197901 (PETER)
General InformationTrack Information on Google MapsList of All Images || ResourceGoogle EarthGE AnimationAtom FeedGeoJSON
Detalied Best Track (Time Zone = UTC)
Year Month Day Hour Lat. Long. Pressure (hPa) Wind (kt) Class Image Chart
1978 12 29 20 -12.6 137.4 995 0 0 Image --
1978 12 29 23 -12.6 137.7 995 0 0 Image --
1978 12 30 05 -12.8 138.3 990 0 0 Image --
1978 12 30 11 -13.2 138.9 990 0 0 Image --
1978 12 30 17 -13.6 139.6 985 0 0 Image --
1978 12 30 23 -14.0 140.3 985 0 0 Image --
1978 12 31 05 -14.3 140.9 980 0 0 Image --
1978 12 31 11 -14.6 141.6 986 0 0 Image --
1978 12 31 17 -14.8 142.4 988 0 0 Image --
1978 12 31 23 -15.0 143.7 990 0 0 Image --
1979 1 1 05 -15.0 144.0 990 0 0 Image --
1979 1 1 11 -15.1 144.8 992 0 0 Image --
1979 1 1 14 -15.1 145.2 994 0 0 Image --
1979 1 1 17 -15.2 145.5 993 0 0 Image --
1979 1 1 20 -15.4 145.5 994 0 0 Image --
1979 1 1 23 -15.4 145.4 995 0 0 Image --
1979 1 2 02 -15.3 145.3 995 0 0 Image --
1979 1 2 05 -15.3 145.3 995 0 0 Image --
1979 1 2 11 -15.4 145.4 997 0 0 Image --
1979 1 2 17 -15.2 145.3 994 0 0 Image --
1979 1 2 23 -15.0 145.5 998 0 0 Image --
1979 1 3 05 -15.1 145.3 997 0 0 Image --
1979 1 3 11 -15.2 145.3 998 0 0 Image --
< Cyclone 197809 1979 Season Cyclone 197902 >

Help